sensor_id;sensor_type;location;lat;lon;timestamp;P1;durP1;ratioP1;P2;durP2;ratioP2
4132;SDS011;2080;51.038;7.008;2022-10-16T00:01:23;672.57;;;610.67;;
4132;SDS011;2080;51.038;7.008;2022-10-16T00:03:55;714.17;;;649.23;;
4132;SDS011;2080;51.038;7.008;2022-10-16T00:06:24;729.47;;;664.20;;
4132;SDS011;2080;51.038;7.008;2022-10-16T00:08:50;679.37;;;617.53;;
4132;SDS011;2080;51.038;7.008;2022-10-16T00:13:46;730.23;;;664.60;;
4132;SDS011;2080;51.038;7.008;2022-10-16T00:16:15;699.10;;;636.07;;
4132;SDS011;2080;51.038;7.008;2022-10-16T00:18:41;691.57;;;629.03;;
4132;SDS011;2080;51.038;7.008;2022-10-16T00:21:08;700.30;;;636.53;;
4132;SDS011;2080;51.038;7.008;2022-10-16T00:23:41;696.73;;;633.23;;
4132;SDS011;2080;51.038;7.008;2022-10-16T00:26:11;700.03;;;636.37;;
4132;SDS011;2080;51.038;7.008;2022-10-16T00:28:38;715.90;;;651.33;;
4132;SDS011;2080;51.038;7.008;2022-10-16T00:31:10;688.17;;;625.07;;
4132;SDS011;2080;51.038;7.008;2022-10-16T00:33:36;747.53;;;680.83;;
4132;SDS011;2080;51.038;7.008;2022-10-16T00:36:04;728.60;;;662.53;;
4132;SDS011;2080;51.038;7.008;2022-10-16T00:38:30;710.33;;;646.50;;
4132;SDS011;2080;51.038;7.008;2022-10-16T00:40:58;720.53;;;655.57;;
4132;SDS011;2080;51.038;7.008;2022-10-16T00:43:43;785.00;;;716.13;;
4132;SDS011;2080;51.038;7.008;2022-10-16T00:46:25;686.30;;;624.00;;
4132;SDS011;2080;51.038;7.008;2022-10-16T00:51:23;703.37;;;640.27;;
4132;SDS011;2080;51.038;7.008;2022-10-16T00:53:58;719.47;;;655.00;;
4132;SDS011;2080;51.038;7.008;2022-10-16T00:56:24;751.97;;;685.67;;
4132;SDS011;2080;51.038;7.008;2022-10-16T00:58:50;703.53;;;640.13;;
4132;SDS011;2080;51.038;7.008;2022-10-16T01:01:20;722.03;;;657.47;;
4132;SDS011;2080;51.038;7.008;2022-10-16T01:03:48;719.50;;;654.60;;
4132;SDS011;2080;51.038;7.008;2022-10-16T01:06:23;731.57;;;666.97;;
4132;SDS011;2080;51.038;7.008;2022-10-16T01:09:03;696.60;;;634.10;;
4132;SDS011;2080;51.038;7.008;2022-10-16T01:11:33;712.17;;;647.97;;
4132;SDS011;2080;51.038;7.008;2022-10-16T01:14:02;684.47;;;622.73;;
4132;SDS011;2080;51.038;7.008;2022-10-16T01:16:38;699.50;;;636.13;;
4132;SDS011;2080;51.038;7.008;2022-10-16T01:19:16;737.10;;;671.33;;
4132;SDS011;2080;51.038;7.008;2022-10-16T01:21:51;751.50;;;685.57;;
4132;SDS011;2080;51.038;7.008;2022-10-16T01:27:17;722.73;;;657.87;;
4132;SDS011;2080;51.038;7.008;2022-10-16T01:29:49;710.00;;;645.60;;
4132;SDS011;2080;51.038;7.008;2022-10-16T01:35:07;735.80;;;670.50;;
4132;SDS011;2080;51.038;7.008;2022-10-16T01:40:14;744.00;;;678.23;;
4132;SDS011;2080;51.038;7.008;2022-10-16T01:42:45;721.83;;;657.13;;
4132;SDS011;2080;51.038;7.008;2022-10-16T01:45:14;742.93;;;674.70;;
4132;SDS011;2080;51.038;7.008;2022-10-16T01:47:45;739.83;;;674.40;;
4132;SDS011;2080;51.038;7.008;2022-10-16T01:50:18;820.87;;;746.67;;
4132;SDS011;2080;51.038;7.008;2022-10-16T01:52:46;765.77;;;696.73;;
4132;SDS011;2080;51.038;7.008;2022-10-16T01:55:22;721.87;;;654.43;;
4132;SDS011;2080;51.038;7.008;2022-10-16T01:57:53;709.67;;;645.23;;
4132;SDS011;2080;51.038;7.008;2022-10-16T02:00:19;815.07;;;741.23;;
4132;SDS011;2080;51.038;7.008;2022-10-16T02:02:47;761.70;;;692.83;;
4132;SDS011;2080;51.038;7.008;2022-10-16T02:07:52;782.33;;;712.10;;
4132;SDS011;2080;51.038;7.008;2022-10-16T02:10:20;761.60;;;692.90;;
4132;SDS011;2080;51.038;7.008;2022-10-16T02:12:50;724.43;;;659.47;;
4132;SDS011;2080;51.038;7.008;2022-10-16T02:15:22;665.63;;;602.70;;
4132;SDS011;2080;51.038;7.008;2022-10-16T02:17:47;718.77;;;653.00;;
4132;SDS011;2080;51.038;7.008;2022-10-16T02:20:15;685.17;;;622.17;;
4132;SDS011;2080;51.038;7.008;2022-10-16T02:22:48;722.70;;;656.60;;
4132;SDS011;2080;51.038;7.008;2022-10-16T02:25:27;764.37;;;696.37;;
4132;SDS011;2080;51.038;7.008;2022-10-16T02:28:10;692.17;;;627.80;;
4132;SDS011;2080;51.038;7.008;2022-10-16T02:30:45;660.23;;;599.50;;
4132;SDS011;2080;51.038;7.008;2022-10-16T02:33:12;665.77;;;605.30;;
4132;SDS011;2080;51.038;7.008;2022-10-16T02:35:40;708.30;;;644.87;;
4132;SDS011;2080;51.038;7.008;2022-10-16T02:38:07;659.20;;;598.23;;
4132;SDS011;2080;51.038;7.008;2022-10-16T02:40:34;700.97;;;638.63;;
4132;SDS011;2080;51.038;7.008;2022-10-16T02:43:03;681.67;;;619.93;;
4132;SDS011;2080;51.038;7.008;2022-10-16T02:45:31;664.53;;;602.90;;
4132;SDS011;2080;51.038;7.008;2022-10-16T02:47:57;667.30;;;606.70;;
4132;SDS011;2080;51.038;7.008;2022-10-16T02:50:22;680.80;;;619.73;;
4132;SDS011;2080;51.038;7.008;2022-10-16T02:52:49;693.87;;;631.90;;
4132;SDS011;2080;51.038;7.008;2022-10-16T02:55:14;674.27;;;612.50;;
4132;SDS011;2080;51.038;7.008;2022-10-16T02:57:40;675.93;;;614.37;;
4132;SDS011;2080;51.038;7.008;2022-10-16T03:00:06;690.80;;;628.70;;
4132;SDS011;2080;51.038;7.008;2022-10-16T03:02:33;686.30;;;624.53;;
4132;SDS011;2080;51.038;7.008;2022-10-16T03:05:01;694.07;;;631.30;;
4132;SDS011;2080;51.038;7.008;2022-10-16T03:07:26;675.70;;;613.33;;
4132;SDS011;2080;51.038;7.008;2022-10-16T03:09:54;683.13;;;620.43;;
4132;SDS011;2080;51.038;7.008;2022-10-16T03:12:20;678.03;;;615.97;;
4132;SDS011;2080;51.038;7.008;2022-10-16T03:14:45;657.83;;;596.73;;
4132;SDS011;2080;51.038;7.008;2022-10-16T03:17:11;685.63;;;622.87;;
4132;SDS011;2080;51.038;7.008;2022-10-16T03:19:40;678.17;;;615.43;;
4132;SDS011;2080;51.038;7.008;2022-10-16T03:22:08;668.20;;;605.50;;
4132;SDS011;2080;51.038;7.008;2022-10-16T03:24:33;688.43;;;625.80;;
4132;SDS011;2080;51.038;7.008;2022-10-16T03:26:58;677.57;;;615.80;;
4132;SDS011;2080;51.038;7.008;2022-10-16T03:29:27;687.33;;;625.43;;
4132;SDS011;2080;51.038;7.008;2022-10-16T03:31:55;733.13;;;667.50;;
4132;SDS011;2080;51.038;7.008;2022-10-16T03:34:21;653.33;;;592.33;;
4132;SDS011;2080;51.038;7.008;2022-10-16T03:36:49;671.77;;;610.57;;
4132;SDS011;2080;51.038;7.008;2022-10-16T03:39:14;733.87;;;668.07;;
4132;SDS011;2080;51.038;7.008;2022-10-16T03:41:40;740.37;;;675.27;;
4132;SDS011;2080;51.038;7.008;2022-10-16T03:44:05;700.73;;;637.63;;
4132;SDS011;2080;51.038;7.008;2022-10-16T03:46:35;699.33;;;636.07;;
4132;SDS011;2080;51.038;7.008;2022-10-16T03:49:00;691.23;;;628.60;;
4132;SDS011;2080;51.038;7.008;2022-10-16T03:51:26;754.53;;;687.90;;
4132;SDS011;2080;51.038;7.008;2022-10-16T03:53:53;693.57;;;631.03;;
4132;SDS011;2080;51.038;7.008;2022-10-16T03:56:19;735.37;;;669.53;;
4132;SDS011;2080;51.038;7.008;2022-10-16T03:58:44;682.37;;;620.40;;
4132;SDS011;2080;51.038;7.008;2022-10-16T04:01:09;711.27;;;648.40;;
4132;SDS011;2080;51.038;7.008;2022-10-16T04:03:35;716.93;;;653.47;;
4132;SDS011;2080;51.038;7.008;2022-10-16T04:06:00;660.47;;;599.23;;
4132;SDS011;2080;51.038;7.008;2022-10-16T04:08:25;704.60;;;641.50;;
4132;SDS011;2080;51.038;7.008;2022-10-16T04:10:55;719.70;;;655.60;;
4132;SDS011;2080;51.038;7.008;2022-10-16T04:13:20;672.40;;;610.43;;
4132;SDS011;2080;51.038;7.008;2022-10-16T04:15:48;690.57;;;628.33;;
4132;SDS011;2080;51.038;7.008;2022-10-16T04:18:13;693.90;;;631.20;;
4132;SDS011;2080;51.038;7.008;2022-10-16T04:20:39;671.00;;;610.67;;
4132;SDS011;2080;51.038;7.008;2022-10-16T04:23:04;631.60;;;571.47;;
4132;SDS011;2080;51.038;7.008;2022-10-16T04:25:30;704.73;;;642.20;;
4132;SDS011;2080;51.038;7.008;2022-10-16T04:27:58;699.20;;;635.37;;
4132;SDS011;2080;51.038;7.008;2022-10-16T04:30:26;710.57;;;647.33;;
4132;SDS011;2080;51.038;7.008;2022-10-16T04:32:51;662.27;;;601.93;;
4132;SDS011;2080;51.038;7.008;2022-10-16T04:35:17;682.00;;;620.73;;
4132;SDS011;2080;51.038;7.008;2022-10-16T04:37:44;641.63;;;581.23;;
4132;SDS011;2080;51.038;7.008;2022-10-16T04:40:12;665.53;;;605.00;;
4132;SDS011;2080;51.038;7.008;2022-10-16T04:42:38;725.63;;;660.83;;
4132;SDS011;2080;51.038;7.008;2022-10-16T04:45:04;705.17;;;642.23;;
4132;SDS011;2080;51.038;7.008;2022-10-16T04:47:30;649.50;;;589.40;;
4132;SDS011;2080;51.038;7.008;2022-10-16T04:49:55;655.93;;;595.63;;
4132;SDS011;2080;51.038;7.008;2022-10-16T04:52:23;690.77;;;628.20;;
4132;SDS011;2080;51.038;7.008;2022-10-16T04:54:50;687.67;;;624.93;;
4132;SDS011;2080;51.038;7.008;2022-10-16T04:57:15;699.00;;;636.97;;
4132;SDS011;2080;51.038;7.008;2022-10-16T04:59:43;697.93;;;635.20;;
4132;SDS011;2080;51.038;7.008;2022-10-16T05:02:09;663.47;;;602.80;;
4132;SDS011;2080;51.038;7.008;2022-10-16T05:04:34;653.37;;;593.37;;
4132;SDS011;2080;51.038;7.008;2022-10-16T05:06:59;654.43;;;594.70;;
4132;SDS011;2080;51.038;7.008;2022-10-16T05:09:25;693.93;;;632.60;;
4132;SDS011;2080;51.038;7.008;2022-10-16T05:11:50;643.80;;;583.63;;
4132;SDS011;2080;51.038;7.008;2022-10-16T05:14:16;634.33;;;574.80;;
4132;SDS011;2080;51.038;7.008;2022-10-16T05:16:41;669.77;;;608.50;;
4132;SDS011;2080;51.038;7.008;2022-10-16T05:19:06;666.20;;;605.57;;
4132;SDS011;2080;51.038;7.008;2022-10-16T05:21:34;637.47;;;578.23;;
4132;SDS011;2080;51.038;7.008;2022-10-16T05:23:59;636.70;;;577.60;;
4132;SDS011;2080;51.038;7.008;2022-10-16T05:26:27;661.40;;;600.13;;
4132;SDS011;2080;51.038;7.008;2022-10-16T05:28:55;699.23;;;635.97;;
4132;SDS011;2080;51.038;7.008;2022-10-16T05:31:22;642.77;;;583.20;;
4132;SDS011;2080;51.038;7.008;2022-10-16T05:33:48;637.60;;;578.30;;
4132;SDS011;2080;51.038;7.008;2022-10-16T05:36:13;658.10;;;597.00;;
4132;SDS011;2080;51.038;7.008;2022-10-16T05:38:39;727.03;;;661.13;;
4132;SDS011;2080;51.038;7.008;2022-10-16T05:41:05;705.13;;;642.33;;
4132;SDS011;2080;51.038;7.008;2022-10-16T05:43:32;720.97;;;657.13;;
4132;SDS011;2080;51.038;7.008;2022-10-16T05:45:59;724.47;;;659.77;;
4132;SDS011;2080;51.038;7.008;2022-10-16T05:48:26;721.60;;;657.50;;
4132;SDS011;2080;51.038;7.008;2022-10-16T05:51:04;401.70;;;249.83;;
4132;SDS011;2080;51.038;7.008;2022-10-16T05:53:33;427.70;;;327.97;;
4132;SDS011;2080;51.038;7.008;2022-10-16T05:55:59;410.67;;;279.83;;
4132;SDS011;2080;51.038;7.008;2022-10-16T05:58:28;440.57;;;354.80;;
4132;SDS011;2080;51.038;7.008;2022-10-16T06:00:58;436.73;;;347.20;;
4132;SDS011;2080;51.038;7.008;2022-10-16T06:03:28;557.80;;;501.60;;
4132;SDS011;2080;51.038;7.008;2022-10-16T06:05:56;420.10;;;319.57;;
4132;SDS011;2080;51.038;7.008;2022-10-16T06:09:51;652.37;;;592.83;;
4132;SDS011;2080;51.038;7.008;2022-10-16T06:12:16;587.17;;;531.90;;
4132;SDS011;2080;51.038;7.008;2022-10-16T06:14:41;577.70;;;521.23;;
4132;SDS011;2080;51.038;7.008;2022-10-16T06:17:09;607.40;;;550.60;;
4132;SDS011;2080;51.038;7.008;2022-10-16T06:19:34;505.10;;;452.03;;
4132;SDS011;2080;51.038;7.008;2022-10-16T06:21:59;574.70;;;518.80;;
4132;SDS011;2080;51.038;7.008;2022-10-16T06:24:25;532.40;;;479.50;;
4132;SDS011;2080;51.038;7.008;2022-10-16T06:26:50;544.93;;;491.17;;
4132;SDS011;2080;51.038;7.008;2022-10-16T06:31:32;763.87;;;697.17;;
4132;SDS011;2080;51.038;7.008;2022-10-16T06:33:58;724.17;;;660.57;;
4132;SDS011;2080;51.038;7.008;2022-10-16T06:36:24;748.17;;;682.83;;
4132;SDS011;2080;51.038;7.008;2022-10-16T06:38:49;619.93;;;562.57;;
4132;SDS011;2080;51.038;7.008;2022-10-16T06:41:16;663.77;;;604.07;;
4132;SDS011;2080;51.038;7.008;2022-10-16T06:43:41;525.47;;;472.23;;
4132;SDS011;2080;51.038;7.008;2022-10-16T06:46:08;627.97;;;569.90;;
4132;SDS011;2080;51.038;7.008;2022-10-16T06:48:34;768.13;;;701.43;;
4132;SDS011;2080;51.038;7.008;2022-10-16T06:51:07;614.23;;;556.60;;
4132;SDS011;2080;51.038;7.008;2022-10-16T06:53:34;562.57;;;507.70;;
4132;SDS011;2080;51.038;7.008;2022-10-16T06:56:21;736.03;;;670.77;;
4132;SDS011;2080;51.038;7.008;2022-10-16T06:58:47;745.63;;;680.27;;
4132;SDS011;2080;51.038;7.008;2022-10-16T07:01:16;778.23;;;710.53;;
4132;SDS011;2080;51.038;7.008;2022-10-16T07:03:41;808.10;;;737.87;;
4132;SDS011;2080;51.038;7.008;2022-10-16T07:06:10;749.83;;;684.57;;
4132;SDS011;2080;51.038;7.008;2022-10-16T07:08:36;661.30;;;600.63;;
4132;SDS011;2080;51.038;7.008;2022-10-16T07:11:02;499.07;;;445.63;;
4132;SDS011;2080;51.038;7.008;2022-10-16T07:13:28;467.53;;;407.97;;
4132;SDS011;2080;51.038;7.008;2022-10-16T07:15:53;451.40;;;384.00;;
4132;SDS011;2080;51.038;7.008;2022-10-16T07:18:18;686.80;;;625.00;;
4132;SDS011;2080;51.038;7.008;2022-10-16T07:20:44;622.27;;;562.80;;
4132;SDS011;2080;51.038;7.008;2022-10-16T07:23:09;317.23;;;81.90;;
4132;SDS011;2080;51.038;7.008;2022-10-16T07:28:54;343.17;;;101.73;;
4132;SDS011;2080;51.038;7.008;2022-10-16T07:31:22;333.37;;;105.30;;
4132;SDS011;2080;51.038;7.008;2022-10-16T07:33:52;437.17;;;341.47;;
4132;SDS011;2080;51.038;7.008;2022-10-16T07:36:18;380.30;;;217.00;;
4132;SDS011;2080;51.038;7.008;2022-10-16T07:38:44;359.63;;;149.00;;
4132;SDS011;2080;51.038;7.008;2022-10-16T07:41:12;363.77;;;164.50;;
4132;SDS011;2080;51.038;7.008;2022-10-16T07:43:38;532.33;;;476.40;;
4132;SDS011;2080;51.038;7.008;2022-10-16T07:46:05;378.90;;;191.40;;
4132;SDS011;2080;51.038;7.008;2022-10-16T07:48:31;745.83;;;679.43;;
4132;SDS011;2080;51.038;7.008;2022-10-16T07:51:00;375.30;;;196.07;;
4132;SDS011;2080;51.038;7.008;2022-10-16T07:53:25;332.53;;;105.63;;
4132;SDS011;2080;51.038;7.008;2022-10-16T07:55:50;614.30;;;554.40;;
4132;SDS011;2080;51.038;7.008;2022-10-16T07:58:16;710.30;;;646.70;;
4132;SDS011;2080;51.038;7.008;2022-10-16T08:00:41;708.80;;;645.50;;
4132;SDS011;2080;51.038;7.008;2022-10-16T08:03:07;641.83;;;580.03;;
4132;SDS011;2080;51.038;7.008;2022-10-16T08:05:33;693.80;;;631.50;;
4132;SDS011;2080;51.038;7.008;2022-10-16T08:07:58;694.80;;;632.20;;
4132;SDS011;2080;51.038;7.008;2022-10-16T08:10:25;692.43;;;630.67;;
4132;SDS011;2080;51.038;7.008;2022-10-16T08:12:51;680.80;;;618.83;;
4132;SDS011;2080;51.038;7.008;2022-10-16T08:15:19;721.60;;;657.20;;
4132;SDS011;2080;51.038;7.008;2022-10-16T08:17:44;734.30;;;668.80;;
4132;SDS011;2080;51.038;7.008;2022-10-16T08:20:12;756.60;;;690.17;;
4132;SDS011;2080;51.038;7.008;2022-10-16T08:22:39;831.67;;;761.30;;
4132;SDS011;2080;51.038;7.008;2022-10-16T08:25:07;651.63;;;589.57;;
4132;SDS011;2080;51.038;7.008;2022-10-16T08:27:32;315.57;;;81.97;;
4132;SDS011;2080;51.038;7.008;2022-10-16T08:29:58;363.47;;;138.10;;
4132;SDS011;2080;51.038;7.008;2022-10-16T08:32:25;370.30;;;171.73;;
4132;SDS011;2080;51.038;7.008;2022-10-16T08:36:40;855.07;;;781.80;;
4132;SDS011;2080;51.038;7.008;2022-10-16T08:39:10;874.97;;;799.47;;
4132;SDS011;2080;51.038;7.008;2022-10-16T08:46:53;778.63;;;708.73;;
4132;SDS011;2080;51.038;7.008;2022-10-16T08:49:21;712.37;;;647.43;;
4132;SDS011;2080;51.038;7.008;2022-10-16T08:51:49;844.10;;;770.50;;
4132;SDS011;2080;51.038;7.008;2022-10-16T08:56:43;718.43;;;652.37;;
4132;SDS011;2080;51.038;7.008;2022-10-16T08:59:09;590.70;;;531.60;;
4132;SDS011;2080;51.038;7.008;2022-10-16T09:01:37;489.20;;;432.97;;
4132;SDS011;2080;51.038;7.008;2022-10-16T09:16:49;539.47;;;484.97;;
4132;SDS011;2080;51.038;7.008;2022-10-16T09:19:20;568.47;;;513.10;;
4132;SDS011;2080;51.038;7.008;2022-10-16T09:21:48;502.63;;;450.37;;
4132;SDS011;2080;51.038;7.008;2022-10-16T09:24:15;456.30;;;401.43;;
4132;SDS011;2080;51.038;7.008;2022-10-16T09:26:41;456.47;;;401.70;;
4132;SDS011;2080;51.038;7.008;2022-10-16T09:29:06;493.37;;;440.57;;
4132;SDS011;2080;51.038;7.008;2022-10-16T09:31:31;492.63;;;440.63;;
4132;SDS011;2080;51.038;7.008;2022-10-16T09:34:00;594.40;;;537.47;;
4132;SDS011;2080;51.038;7.008;2022-10-16T09:36:34;605.47;;;547.87;;
4132;SDS011;2080;51.038;7.008;2022-10-16T09:39:02;558.00;;;503.60;;
4132;SDS011;2080;51.038;7.008;2022-10-16T09:41:28;542.70;;;488.47;;
4132;SDS011;2080;51.038;7.008;2022-10-16T09:43:56;597.23;;;540.30;;
4132;SDS011;2080;51.038;7.008;2022-10-16T09:48:51;708.10;;;644.27;;
4132;SDS011;2080;51.038;7.008;2022-10-16T09:51:22;682.23;;;620.13;;
4132;SDS011;2080;51.038;7.008;2022-10-16T09:53:48;723.77;;;659.37;;
4132;SDS011;2080;51.038;7.008;2022-10-16T09:56:25;738.47;;;673.27;;
4132;SDS011;2080;51.038;7.008;2022-10-16T09:58:55;670.00;;;609.10;;
4132;SDS011;2080;51.038;7.008;2022-10-16T10:01:24;729.70;;;664.73;;
4132;SDS011;2080;51.038;7.008;2022-10-16T10:03:51;738.13;;;672.50;;
4132;SDS011;2080;51.038;7.008;2022-10-16T10:06:27;834.73;;;762.13;;
4132;SDS011;2080;51.038;7.008;2022-10-16T10:08:56;731.73;;;666.70;;
4132;SDS011;2080;51.038;7.008;2022-10-16T10:14:05;471.03;;;419.40;;
4132;SDS011;2080;51.038;7.008;2022-10-16T10:16:31;409.90;;;250.27;;
4132;SDS011;2080;51.038;7.008;2022-10-16T10:18:59;371.87;;;171.03;;
4132;SDS011;2080;51.038;7.008;2022-10-16T10:21:29;344.40;;;107.27;;
4132;SDS011;2080;51.038;7.008;2022-10-16T10:23:59;389.90;;;218.77;;
4132;SDS011;2080;51.038;7.008;2022-10-16T10:26:27;322.07;;;78.30;;
4132;SDS011;2080;51.038;7.008;2022-10-16T10:29:27;377.43;;;172.13;;
4132;SDS011;2080;51.038;7.008;2022-10-16T10:31:50;369.83;;;150.47;;
4132;SDS011;2080;51.038;7.008;2022-10-16T10:34:33;326.20;;;100.03;;
4132;SDS011;2080;51.038;7.008;2022-10-16T10:37:04;392.00;;;221.63;;
4132;SDS011;2080;51.038;7.008;2022-10-16T10:39:44;439.07;;;322.10;;
4132;SDS011;2080;51.038;7.008;2022-10-16T10:44:47;378.73;;;141.30;;
4132;SDS011;2080;51.038;7.008;2022-10-16T11:07:51;439.87;;;317.60;;
4132;SDS011;2080;51.038;7.008;2022-10-16T11:10:21;426.37;;;250.70;;
4132;SDS011;2080;51.038;7.008;2022-10-16T11:12:49;401.93;;;222.90;;
4132;SDS011;2080;51.038;7.008;2022-10-16T11:20:22;377.23;;;182.53;;
4132;SDS011;2080;51.038;7.008;2022-10-16T11:23:51;423.90;;;267.00;;
4132;SDS011;2080;51.038;7.008;2022-10-16T11:25:43;437.83;;;299.33;;
4132;SDS011;2080;51.038;7.008;2022-10-16T11:28:11;347.07;;;89.63;;
4132;SDS011;2080;51.038;7.008;2022-10-16T11:30:41;337.33;;;89.47;;
4132;SDS011;2080;51.038;7.008;2022-10-16T11:38:04;364.10;;;116.23;;
4132;SDS011;2080;51.038;7.008;2022-10-16T11:40:37;423.93;;;244.53;;
4132;SDS011;2080;51.038;7.008;2022-10-16T11:43:10;449.23;;;354.33;;
4132;SDS011;2080;51.038;7.008;2022-10-16T11:48:18;585.70;;;529.17;;
4132;SDS011;2080;51.038;7.008;2022-10-16T11:50:54;537.37;;;483.07;;
4132;SDS011;2080;51.038;7.008;2022-10-16T11:56:04;369.77;;;148.80;;
4132;SDS011;2080;51.038;7.008;2022-10-16T11:58:31;331.83;;;73.03;;
4132;SDS011;2080;51.038;7.008;2022-10-16T12:08:45;435.20;;;352.47;;
4132;SDS011;2080;51.038;7.008;2022-10-16T12:11:23;338.53;;;72.10;;
4132;SDS011;2080;51.038;7.008;2022-10-16T12:13:49;308.97;;;49.47;;
4132;SDS011;2080;51.038;7.008;2022-10-16T12:18:43;377.70;;;156.33;;
4132;SDS011;2080;51.038;7.008;2022-10-16T12:21:09;320.37;;;52.80;;
4132;SDS011;2080;51.038;7.008;2022-10-16T12:23:53;317.90;;;70.83;;
4132;SDS011;2080;51.038;7.008;2022-10-16T12:26:25;336.40;;;68.17;;
4132;SDS011;2080;51.038;7.008;2022-10-16T12:28:51;305.40;;;49.17;;
4132;SDS011;2080;51.038;7.008;2022-10-16T12:31:18;472.50;;;406.23;;
4132;SDS011;2080;51.038;7.008;2022-10-16T12:33:56;364.03;;;140.67;;
4132;SDS011;2080;51.038;7.008;2022-10-16T12:38:53;379.13;;;186.07;;
4132;SDS011;2080;51.038;7.008;2022-10-16T12:41:25;359.63;;;101.80;;
4132;SDS011;2080;51.038;7.008;2022-10-16T12:43:51;432.00;;;288.23;;
4132;SDS011;2080;51.038;7.008;2022-10-16T12:48:42;319.60;;;61.50;;
4132;SDS011;2080;51.038;7.008;2022-10-16T12:51:33;406.30;;;224.13;;
4132;SDS011;2080;51.038;7.008;2022-10-16T12:54:14;355.90;;;115.33;;
4132;SDS011;2080;51.038;7.008;2022-10-16T13:07:00;304.50;;;33.77;;
4132;SDS011;2080;51.038;7.008;2022-10-16T13:29:34;326.60;;;82.63;;
4132;SDS011;2080;51.038;7.008;2022-10-16T13:32:06;322.43;;;66.53;;
4132;SDS011;2080;51.038;7.008;2022-10-16T13:34:32;310.00;;;54.83;;
4132;SDS011;2080;51.038;7.008;2022-10-16T13:36:57;336.77;;;69.70;;
4132;SDS011;2080;51.038;7.008;2022-10-16T13:39:24;318.83;;;84.00;;
4132;SDS011;2080;51.038;7.008;2022-10-16T13:44:51;315.77;;;70.30;;
4132;SDS011;2080;51.038;7.008;2022-10-16T13:47:22;314.77;;;57.17;;
4132;SDS011;2080;51.038;7.008;2022-10-16T13:50:00;363.37;;;92.23;;
4132;SDS011;2080;51.038;7.008;2022-10-16T13:52:27;320.33;;;53.93;;
4132;SDS011;2080;51.038;7.008;2022-10-16T13:54:54;323.53;;;62.97;;
4132;SDS011;2080;51.038;7.008;2022-10-16T13:57:22;310.80;;;51.10;;
4132;SDS011;2080;51.038;7.008;2022-10-16T13:59:49;316.83;;;65.17;;
4132;SDS011;2080;51.038;7.008;2022-10-16T14:02:17;307.17;;;41.90;;
4132;SDS011;2080;51.038;7.008;2022-10-16T14:04:43;320.93;;;73.10;;
4132;SDS011;2080;51.038;7.008;2022-10-16T14:07:20;320.60;;;56.97;;
4132;SDS011;2080;51.038;7.008;2022-10-16T14:09:55;314.47;;;56.13;;
4132;SDS011;2080;51.038;7.008;2022-10-16T14:12:21;317.37;;;52.40;;
4132;SDS011;2080;51.038;7.008;2022-10-16T14:14:47;306.67;;;42.07;;
4132;SDS011;2080;51.038;7.008;2022-10-16T14:17:14;310.33;;;48.10;;
4132;SDS011;2080;51.038;7.008;2022-10-16T14:19:39;299.33;;;43.00;;
4132;SDS011;2080;51.038;7.008;2022-10-16T14:22:11;297.60;;;38.10;;
4132;SDS011;2080;51.038;7.008;2022-10-16T14:24:44;299.20;;;35.40;;
4132;SDS011;2080;51.038;7.008;2022-10-16T14:27:29;309.23;;;40.53;;
4132;SDS011;2080;51.038;7.008;2022-10-16T14:32:58;306.50;;;45.80;;
4132;SDS011;2080;51.038;7.008;2022-10-16T14:35:25;325.00;;;57.37;;
4132;SDS011;2080;51.038;7.008;2022-10-16T14:37:51;383.87;;;171.70;;
4132;SDS011;2080;51.038;7.008;2022-10-16T14:40:16;307.93;;;41.73;;
4132;SDS011;2080;51.038;7.008;2022-10-16T14:42:45;311.80;;;39.60;;
4132;SDS011;2080;51.038;7.008;2022-10-16T14:45:11;357.83;;;112.30;;
4132;SDS011;2080;51.038;7.008;2022-10-16T14:47:37;335.93;;;59.50;;
4132;SDS011;2080;51.038;7.008;2022-10-16T14:50:12;312.97;;;49.37;;
4132;SDS011;2080;51.038;7.008;2022-10-16T14:52:38;434.50;;;271.27;;
4132;SDS011;2080;51.038;7.008;2022-10-16T14:55:03;324.90;;;42.60;;
4132;SDS011;2080;51.038;7.008;2022-10-16T14:57:29;428.07;;;307.27;;
4132;SDS011;2080;51.038;7.008;2022-10-16T14:59:55;397.43;;;182.60;;
4132;SDS011;2080;51.038;7.008;2022-10-16T15:02:33;331.27;;;55.53;;
4132;SDS011;2080;51.038;7.008;2022-10-16T15:05:07;414.03;;;211.60;;
4132;SDS011;2080;51.038;7.008;2022-10-16T15:07:37;450.07;;;324.13;;
4132;SDS011;2080;51.038;7.008;2022-10-16T15:10:02;327.33;;;58.67;;
4132;SDS011;2080;51.038;7.008;2022-10-16T15:12:28;396.23;;;228.33;;
4132;SDS011;2080;51.038;7.008;2022-10-16T15:14:53;452.97;;;327.27;;
4132;SDS011;2080;51.038;7.008;2022-10-16T15:17:21;442.13;;;351.90;;
4132;SDS011;2080;51.038;7.008;2022-10-16T15:19:46;428.73;;;248.37;;
4132;SDS011;2080;51.038;7.008;2022-10-16T15:22:11;420.50;;;267.80;;
4132;SDS011;2080;51.038;7.008;2022-10-16T15:24:37;450.13;;;378.53;;
4132;SDS011;2080;51.038;7.008;2022-10-16T15:27:02;441.63;;;363.03;;
4132;SDS011;2080;51.038;7.008;2022-10-16T15:29:27;436.30;;;318.90;;
4132;SDS011;2080;51.038;7.008;2022-10-16T15:31:53;482.63;;;412.77;;
4132;SDS011;2080;51.038;7.008;2022-10-16T15:34:18;450.90;;;382.37;;
4132;SDS011;2080;51.038;7.008;2022-10-16T15:36:44;470.47;;;385.67;;
4132;SDS011;2080;51.038;7.008;2022-10-16T15:39:16;441.50;;;362.50;;
4132;SDS011;2080;51.038;7.008;2022-10-16T15:41:42;433.43;;;280.17;;
4132;SDS011;2080;51.038;7.008;2022-10-16T15:44:08;405.50;;;216.33;;
4132;SDS011;2080;51.038;7.008;2022-10-16T15:46:33;435.03;;;242.03;;
4132;SDS011;2080;51.038;7.008;2022-10-16T15:48:59;426.37;;;252.50;;
4132;SDS011;2080;51.038;7.008;2022-10-16T15:51:25;417.83;;;248.63;;
4132;SDS011;2080;51.038;7.008;2022-10-16T15:53:54;390.43;;;170.33;;
4132;SDS011;2080;51.038;7.008;2022-10-16T15:56:19;385.43;;;170.67;;
4132;SDS011;2080;51.038;7.008;2022-10-16T15:58:45;407.13;;;221.27;;
4132;SDS011;2080;51.038;7.008;2022-10-16T16:01:10;423.03;;;268.60;;
4132;SDS011;2080;51.038;7.008;2022-10-16T16:03:36;465.63;;;373.63;;
4132;SDS011;2080;51.038;7.008;2022-10-16T16:06:04;411.97;;;249.37;;
4132;SDS011;2080;51.038;7.008;2022-10-16T16:08:29;534.70;;;478.23;;
4132;SDS011;2080;51.038;7.008;2022-10-16T16:11:05;715.87;;;648.83;;
4132;SDS011;2080;51.038;7.008;2022-10-16T16:13:30;758.13;;;687.77;;
4132;SDS011;2080;51.038;7.008;2022-10-16T16:15:56;748.40;;;679.33;;
4132;SDS011;2080;51.038;7.008;2022-10-16T16:18:21;785.87;;;714.03;;
4132;SDS011;2080;51.038;7.008;2022-10-16T16:20:50;1022.13;;;926.77;;
4132;SDS011;2080;51.038;7.008;2022-10-16T16:23:15;1314.50;;;921.03;;
4132;SDS011;2080;51.038;7.008;2022-10-16T16:25:41;1396.57;;;973.50;;
4132;SDS011;2080;51.038;7.008;2022-10-16T16:28:11;1112.33;;;997.40;;
4132;SDS011;2080;51.038;7.008;2022-10-16T16:30:39;1089.03;;;987.07;;
4132;SDS011;2080;51.038;7.008;2022-10-16T16:33:04;1161.33;;;999.90;;
4132;SDS011;2080;51.038;7.008;2022-10-16T16:35:32;1113.03;;;999.90;;
4132;SDS011;2080;51.038;7.008;2022-10-16T16:38:00;1095.00;;;991.30;;
4132;SDS011;2080;51.038;7.008;2022-10-16T16:40:26;1206.97;;;999.90;;
4132;SDS011;2080;51.038;7.008;2022-10-16T16:42:51;1196.03;;;999.90;;
4132;SDS011;2080;51.038;7.008;2022-10-16T16:45:16;1120.53;;;999.90;;
4132;SDS011;2080;51.038;7.008;2022-10-16T16:47:41;1163.63;;;999.90;;
4132;SDS011;2080;51.038;7.008;2022-10-16T16:50:07;1216.57;;;999.90;;